Time;durP1;ratioP1;P1;durP2;ratioP2;P2;SDS_P1;SDS_P2;PMS_P1;PMS_P2;Temp;Humidity;BMP_temperature;BMP_pressure;BME280_temperature;BME280_humidity;BME280_pressure;Samples;Min_cycle;Max_cycle;Signal;HPM_P1;HPM_P2
2022/08/12 00:44:32;;;;;;;8.27;2.45;;;28.60;99.90;;;;;;4203260;28;20566;-71
2022/08/12 00:46:46;;;;;;;4.38;1.80;;;28.60;99.90;;;;;;4206932;28;20055;-71
2022/08/12 00:48:52;;;;;;;7.93;1.88;;;28.60;99.90;;;;;;4205597;28;20383;-71
2022/08/12 00:50:57;;;;;;;3.65;1.52;;;28.70;99.90;;;;;;4205281;28;20062;-71
2022/08/12 00:53:02;;;;;;;7.15;2.00;;;28.70;99.90;;;;;;4206386;28;20105;-71
2022/08/12 00:55:08;;;;;;;6.70;1.83;;;28.70;99.90;;;;;;4187116;28;20063;-71
2022/08/12 00:57:20;;;;;;;8.50;2.08;;;28.70;99.90;;;;;;4206409;28;20516;-72
2022/08/12 00:59:25;;;;;;;4.30;1.77;;;28.80;99.90;;;;;;4205962;28;20130;-71
2022/08/12 01:01:30;;;;;;;4.90;1.70;;;28.70;99.90;;;;;;4206632;28;20764;-71
2022/08/12 01:13:04;;;;;;;7.53;1.88;;;28.80;99.90;;;;;;4206578;28;20139;-72
2022/08/12 01:15:22;;;;;;;6.13;1.63;;;28.80;99.90;;;;;;4206102;28;20040;-72
2022/08/12 01:17:28;;;;;;;6.50;1.77;;;28.90;99.90;;;;;;4206988;28;20066;-72
2022/08/12 01:19:33;;;;;;;5.53;1.95;;;29.00;99.90;;;;;;4208118;28;20052;-71
2022/08/12 01:22:10;;;;;;;6.57;1.70;;;29.00;99.90;;;;;;4208071;28;20048;-74
2022/08/12 01:24:56;;;;;;;4.65;1.60;;;29.00;99.80;;;;;;4207128;28;20044;-71
2022/08/12 01:27:02;;;;;;;4.80;1.40;;;29.10;99.80;;;;;;4207135;28;20059;-72
2022/08/12 01:29:10;;;;;;;5.88;2.08;;;29.20;99.70;;;;;;4206385;28;20108;-75
2022/08/12 01:31:17;;;;;;;8.27;1.95;;;29.30;99.80;;;;;;4205354;28;20095;-74
2022/08/12 01:33:28;;;;;;;3.50;1.50;;;29.30;99.70;;;;;;4206323;28;20123;-74
2022/08/12 01:35:33;;;;;;;6.90;2.50;;;29.40;99.80;;;;;;4207040;28;20458;-73
2022/08/12 01:38:01;;;;;;;4.25;2.00;;;29.50;99.70;;;;;;4206618;28;20047;-74
2022/08/12 01:40:08;;;;;;;3.10;1.65;;;29.50;99.60;;;;;;4208592;28;20573;-73
2022/08/12 01:42:45;;;;;;;5.25;1.52;;;29.50;99.60;;;;;;4208262;28;20055;-70
2022/08/12 01:44:53;;;;;;;7.57;2.03;;;29.60;99.60;;;;;;4209497;28;20665;-69
2022/08/12 01:47:29;;;;;;;6.15;1.98;;;29.50;99.60;;;;;;4209882;28;20443;-70
2022/08/12 01:50:06;;;;;;;7.30;2.60;;;29.50;99.60;;;;;;4206635;28;20043;-70
2022/08/12 01:52:55;;;;;;;6.78;2.10;;;29.50;99.50;;;;;;4208194;28;20044;-70
2022/08/12 01:54:59;;;;;;;;;;;29.40;99.30;;;;;;4209730;28;20044;-70
2022/08/12 01:57:43;;;;;;;4.53;1.80;;;29.50;99.10;;;;;;4209650;28;19930;-70
2022/08/12 02:00:06;;;;;;;4.65;1.58;;;29.50;99.10;;;;;;4211552;28;20063;-70
2022/08/12 02:02:38;;;;;;;4.05;1.88;;;29.50;98.90;;;;;;4211090;28;20151;-70
2022/08/12 02:13:09;;;;;;;4.38;1.55;;;29.50;98.40;;;;;;4212228;28;20044;-70
2022/08/12 02:15:23;;;;;;;5.30;1.65;;;29.50;98.20;;;;;;4211282;28;20036;-70
2022/08/12 02:17:46;;;;;;;5.88;1.63;;;29.50;98.30;;;;;;4210123;28;20074;-70
2022/08/12 02:20:25;;;;;;;4.20;1.67;;;29.50;98.50;;;;;;4211833;28;20101;-70
2022/08/12 02:22:52;;;;;;;4.38;1.48;;;29.50;98.30;;;;;;4226432;28;20044;-70
2022/08/12 02:25:07;;;;;;;5.65;1.85;;;29.60;98.30;;;;;;4212888;28;20047;-70
2022/08/12 02:27:12;;;;;;;3.67;1.45;;;29.50;97.80;;;;;;4209675;28;20085;-70
2022/08/12 02:29:19;;;;;;;4.07;1.63;;;29.40;98.00;;;;;;4211390;28;20047;-70
2022/08/12 02:31:26;;;;;;;3.38;1.30;;;29.40;98.30;;;;;;4211493;28;20047;-69
2022/08/12 02:33:32;;;;;;;5.35;1.63;;;29.60;98.40;;;;;;4225998;28;20379;-69
2022/08/12 02:35:39;;;;;;;6.68;1.55;;;29.60;98.40;;;;;;4212132;28;20036;-70
2022/08/12 02:37:46;;;;;;;6.97;2.40;;;29.80;98.40;;;;;;4210302;28;20130;-70
2022/08/12 02:39:51;;;;;;;10.20;1.85;;;29.90;98.30;;;;;;4210378;28;20046;-69
2022/08/12 02:41:57;;;;;;;7.63;1.65;;;30.00;98.00;;;;;;4212934;28;20528;-69
2022/08/12 02:44:10;;;;;;;7.80;1.40;;;30.10;97.80;;;;;;4211318;28;20050;-68
2022/08/12 02:46:17;;;;;;;7.10;1.60;;;30.10;97.60;;;;;;4209660;28;20036;-69
2022/08/12 02:48:37;;;;;;;5.32;1.48;;;30.20;97.80;;;;;;4212632;28;20044;-70
2022/08/12 02:50:48;;;;;;;9.48;1.88;;;30.30;97.50;;;;;;4212106;28;20059;-68
2022/08/12 02:52:54;;;;;;;9.05;1.80;;;30.40;97.40;;;;;;4210684;28;20430;-68
2022/08/12 02:55:16;;;;;;;6.43;1.45;;;30.50;97.20;;;;;;4212378;28;20036;-68
2022/08/12 02:57:36;;;;;;;4.22;1.50;;;30.50;97.30;;;;;;4210072;28;20102;-68
2022/08/12 02:59:41;;;;;;;7.60;1.60;;;30.40;97.30;;;;;;4212535;28;20537;-68
2022/08/12 03:01:49;;;;;;;8.10;2.22;;;30.40;97.40;;;;;;4211791;28;20040;-69
2022/08/12 03:03:56;;;;;;;6.50;1.58;;;30.40;97.20;;;;;;4210464;28;20071;-69
2022/08/12 03:06:14;;;;;;;4.05;1.38;;;30.50;97.10;;;;;;4212323;28;20101;-69
2022/08/12 03:08:20;;;;;;;7.80;1.67;;;30.50;96.90;;;;;;4210892;28;20074;-69
2022/08/12 03:10:40;;;;;;;6.75;1.60;;;30.60;96.60;;;;;;4210860;28;20048;-68
2022/08/12 03:12:48;;;;;;;3.97;1.30;;;30.80;96.70;;;;;;4210494;28;20036;-68
2022/08/12 03:14:55;;;;;;;4.00;1.15;;;30.60;96.40;;;;;;4212056;28;20460;-68
2022/08/12 03:17:19;;;;;;;5.82;1.55;;;30.70;96.50;;;;;;4209755;28;20093;-68
2022/08/12 03:19:24;;;;;;;11.65;2.17;;;30.60;96.20;;;;;;4209810;28;20048;-68
2022/08/12 03:21:30;;;;;;;5.65;1.50;;;30.70;96.20;;;;;;4212536;28;20046;-68
2022/08/12 03:23:57;;;;;;;5.40;1.67;;;30.80;96.20;;;;;;4176084;28;20053;-68
2022/08/12 03:26:02;;;;;;;4.43;1.20;;;30.90;96.10;;;;;;4157637;28;20049;-67
2022/08/12 03:28:09;;;;;;;3.70;1.30;;;30.80;96.20;;;;;;4176612;28;20049;-68
2022/08/12 03:30:31;;;;;;;3.88;1.50;;;30.70;96.20;;;;;;4174300;28;20072;-67
2022/08/12 03:32:39;;;;;;;4.95;1.80;;;30.60;96.20;;;;;;4176714;28;20075;-68
2022/08/12 03:34:49;;;;;;;3.95;1.27;;;30.70;96.20;;;;;;4174079;28;20119;-68
2022/08/12 03:36:55;;;;;;;6.30;1.38;;;30.80;96.10;;;;;;4175612;28;20434;-69
2022/08/12 04:02:28;;;;;;;3.45;1.13;;;31.10;95.80;;;;;;4205922;28;20101;-68
2022/08/12 04:04:34;;;;;;;6.57;1.13;;;31.10;95.80;;;;;;4208544;28;20126;-68
2022/08/12 04:06:46;;;;;;;2.72;1.15;;;31.10;95.60;;;;;;4211376;28;20131;-69
2022/08/12 04:08:55;;;;;;;11.60;3.47;;;31.20;95.20;;;;;;4210762;28;20135;-69
2022/08/12 04:13:24;;;;;;;4.35;1.52;;;31.30;95.90;;;;;;4194857;28;20434;-70
2022/08/12 04:15:30;;;;;;;2.47;0.98;;;31.20;95.80;;;;;;4208729;28;20490;-70
2022/08/12 04:17:38;;;;;;;4.55;1.23;;;31.20;95.40;;;;;;4211053;28;20048;-71
2022/08/12 04:20:03;;;;;;;5.95;1.27;;;31.30;95.40;;;;;;4204840;28;20123;-70
2022/08/12 04:22:11;;;;;;;4.30;1.15;;;31.30;95.30;;;;;;4208123;28;20056;-70
2022/08/12 04:24:19;;;;;;;5.03;1.40;;;31.20;95.70;;;;;;4209632;28;20392;-70
2022/08/12 04:26:24;;;;;;;4.00;1.40;;;31.20;95.60;;;;;;4211003;28;20063;-70
2022/08/12 04:28:31;;;;;;;3.60;1.17;;;31.30;95.50;;;;;;4209340;28;20067;-70
2022/08/12 04:30:39;;;;;;;5.70;1.27;;;31.30;95.50;;;;;;4210514;28;20627;-69
2022/08/12 04:32:43;;;;;;;3.97;1.17;;;31.30;95.10;;;;;;4210736;28;20068;-69
2022/08/12 04:34:51;;;;;;;3.08;1.10;;;31.20;95.30;;;;;;4207927;28;20398;-70
2022/08/12 04:36:56;;;;;;;4.85;1.88;;;31.20;95.50;;;;;;4209452;28;20087;-70
2022/08/12 04:39:01;;;;;;;3.80;1.40;;;31.10;95.30;;;;;;4210219;28;20052;-69
2022/08/12 04:41:09;;;;;;;4.07;1.30;;;31.00;95.40;;;;;;4210920;28;20043;-69
2022/08/12 04:43:17;;;;;;;4.80;1.15;;;31.00;95.20;;;;;;4210448;28;20075;-69
2022/08/12 04:45:42;;;;;;;2.83;1.02;;;31.00;95.20;;;;;;4209469;28;20035;-70
2022/08/12 04:47:49;;;;;;;3.92;1.30;;;31.10;95.30;;;;;;4210753;28;20044;-70
2022/08/12 04:49:55;;;;;;;5.97;1.40;;;31.20;95.30;;;;;;4189079;28;20049;-70
2022/08/12 04:51:59;;;;;;;2.85;1.08;;;31.30;95.40;;;;;;4210443;28;20040;-71
2022/08/12 04:54:06;;;;;;;2.63;1.20;;;31.30;95.20;;;;;;4210312;28;20056;-70
2022/08/12 04:56:13;;;;;;;3.25;1.20;;;31.20;95.60;;;;;;4208392;28;20047;-70
2022/08/12 04:58:17;;;;;;;3.88;1.20;;;31.20;95.70;;;;;;4210478;28;20067;-71
2022/08/12 05:00:34;;;;;;;4.75;1.20;;;31.00;95.70;;;;;;4207667;28;20469;-70
2022/08/12 05:02:41;;;;;;;5.88;1.67;;;31.00;95.80;;;;;;4209382;28;20056;-70
2022/08/12 05:04:50;;;;;;;6.78;1.67;;;31.00;95.70;;;;;;4209348;28;20444;-70
2022/08/12 05:06:56;;;;;;;7.78;1.75;;;31.00;95.50;;;;;;4208586;28;20157;-70
2022/08/12 05:09:03;;;;;;;5.72;1.60;;;31.00;95.50;;;;;;4210350;28;20079;-70
2022/08/12 05:11:16;;;;;;;6.25;1.50;;;31.00;95.70;;;;;;4209018;28;20119;-70
2022/08/12 05:13:22;;;;;;;6.40;1.35;;;31.00;95.90;;;;;;4208048;28;20054;-70
2022/08/12 05:15:27;;;;;;;4.97;1.33;;;31.00;95.70;;;;;;4210290;28;20028;-69
2022/08/12 05:17:32;;;;;;;4.57;1.60;;;31.00;95.90;;;;;;4209962;28;20052;-69
2022/08/12 05:19:39;;;;;;;4.55;1.38;;;31.00;96.30;;;;;;4208271;28;20673;-70
2022/08/12 05:21:46;;;;;;;6.13;1.40;;;30.80;96.30;;;;;;4208891;28;20226;-70
2022/08/12 05:23:51;;;;;;;9.55;1.48;;;30.90;96.30;;;;;;4210161;28;20044;-70
2022/08/12 05:25:58;;;;;;;5.72;1.70;;;30.90;96.40;;;;;;4210218;28;20071;-69
2022/08/12 05:28:05;;;;;;;3.63;1.15;;;30.90;96.30;;;;;;4208550;28;20479;-68
2022/08/12 05:30:11;;;;;;;8.85;1.70;;;30.80;96.30;;;;;;4207056;28;20087;-68
2022/08/12 05:32:19;;;;;;;6.18;1.42;;;30.50;96.50;;;;;;4209420;28;20050;-68
2022/08/12 05:34:28;;;;;;;4.53;1.58;;;30.50;96.70;;;;;;4211522;28;20067;-68
2022/08/12 05:36:35;;;;;;;4.57;1.60;;;30.50;96.40;;;;;;4213000;28;20044;-69
2022/08/12 05:41:02;;;;;;;8.50;2.00;;;30.80;96.60;;;;;;4225805;28;20054;-68
2022/08/12 05:43:06;;;;;;;9.70;1.60;;;30.70;96.20;;;;;;4228816;28;20040;-69
2022/08/12 05:45:13;;;;;;;7.57;1.70;;;30.60;96.10;;;;;;4213501;28;20048;-68
2022/08/12 05:47:19;;;;;;;7.95;2.08;;;30.70;96.20;;;;;;4213339;28;20052;-68
2022/08/12 05:49:44;;;;;;;7.72;1.95;;;30.90;96.20;;;;;;4210527;28;20044;-70
2022/08/12 05:51:51;;;;;;;5.47;1.70;;;31.00;96.40;;;;;;4212707;28;20035;-70
2022/08/12 05:53:57;;;;;;;4.25;1.30;;;31.10;96.10;;;;;;4213386;28;20066;-70
2022/08/12 05:56:02;;;;;;;4.53;1.42;;;31.20;96.30;;;;;;4210785;28;20614;-71
2022/08/12 05:58:08;;;;;;;4.43;1.35;;;31.20;95.80;;;;;;4213811;28;20114;-70
2022/08/12 06:00:16;;;;;;;7.90;2.70;;;31.40;95.60;;;;;;4212133;28;20070;-71
2022/08/12 06:02:20;;;;;;;4.00;1.77;;;31.40;95.50;;;;;;4211613;28;20143;-70
2022/08/12 06:04:27;;;;;;;4.75;1.50;;;31.40;95.90;;;;;;4211238;28;20127;-70
2022/08/12 06:06:37;;;;;;;6.55;1.90;;;31.40;95.90;;;;;;4212382;28;20044;-71
2022/08/12 06:08:45;;;;;;;3.72;1.50;;;31.40;95.80;;;;;;4209191;28;20056;-69
2022/08/12 06:10:51;;;;;;;7.75;1.63;;;31.30;95.60;;;;;;4213155;28;20044;-68
2022/08/12 06:13:01;;;;;;;4.45;1.60;;;31.30;95.60;;;;;;4212570;28;20036;-69
2022/08/12 06:15:06;;;;;;;6.28;1.40;;;31.20;95.40;;;;;;4210841;28;20051;-68
2022/08/12 06:17:12;;;;;;;4.78;1.38;;;31.20;95.50;;;;;;4213054;28;20044;-68
2022/08/12 06:19:18;;;;;;;3.00;1.40;;;31.30;95.50;;;;;;4212983;28;20143;-69
2022/08/12 06:21:22;;;;;;;8.60;2.30;;;31.20;95.50;;;;;;4210000;28;20044;-68
2022/08/12 06:23:29;;;;;;;4.38;1.83;;;31.00;95.50;;;;;;4212867;28;20040;-70
2022/08/12 06:25:35;;;;;;;6.00;1.48;;;31.10;95.30;;;;;;4211665;28;20043;-69
2022/08/12 06:27:46;;;;;;;2.55;1.30;;;31.10;95.50;;;;;;4212880;28;20044;-70
2022/08/12 06:30:14;;;;;;;5.50;1.63;;;31.20;95.40;;;;;;4210151;28;20056;-69
2022/08/12 06:32:34;;;;;;;4.85;1.42;;;31.30;95.40;;;;;;4208934;28;20051;-69
2022/08/12 06:34:51;;;;;;;4.35;1.58;;;31.40;95.20;;;;;;4210353;28;20043;-69
2022/08/12 06:37:17;;;;;;;3.00;1.17;;;31.40;95.20;;;;;;4210295;28;20622;-69
2022/08/12 06:39:27;;;;;;;14.30;8.80;;;31.50;95.20;;;;;;4211302;28;20108;-70
2022/08/12 06:44:19;;;;;;;17.83;11.98;;;31.50;95.10;;;;;;4210620;28;20079;-70
2022/08/12 06:46:29;;;;;;;8.40;3.92;;;31.50;95.60;;;;;;4209436;28;20048;-70
2022/08/12 06:48:34;;;;;;;5.80;2.67;;;31.60;95.20;;;;;;4210760;28;20078;-70
2022/08/12 06:50:39;;;;;;;3.67;1.60;;;31.60;95.00;;;;;;4210347;28;20040;-71
2022/08/12 06:52:45;;;;;;;5.72;1.77;;;31.60;94.90;;;;;;4209985;28;20105;-71
2022/08/12 06:54:52;;;;;;;7.55;1.75;;;31.60;95.00;;;;;;4209593;28;20626;-70
2022/08/12 06:56:59;;;;;;;5.82;1.88;;;31.70;94.90;;;;;;4210146;28;20067;-68
2022/08/12 06:59:25;;;;;;;5.30;1.63;;;31.70;94.80;;;;;;4190565;28;20051;-69
2022/08/12 07:01:30;;;;;;;3.15;1.63;;;31.90;95.00;;;;;;4191515;28;20047;-70
2022/08/12 07:03:36;;;;;;;4.80;1.50;;;31.90;94.50;;;;;;4191655;28;20044;-71
2022/08/12 07:05:41;;;;;;;7.20;1.38;;;31.90;94.30;;;;;;4191540;28;20040;-70
2022/08/12 07:07:46;;;;;;;4.25;1.58;;;32.00;94.40;;;;;;4189347;28;20669;-70
2022/08/12 07:09:53;;;;;;;4.05;1.42;;;32.00;94.20;;;;;;4191293;28;20056;-71
2022/08/12 07:12:17;;;;;;;3.70;1.45;;;32.00;93.80;;;;;;4190997;28;20044;-69
2022/08/12 07:14:22;;;;;;;2.58;1.45;;;32.10;94.10;;;;;;4189596;28;20626;-71
2022/08/12 07:16:51;;;;;;;4.82;1.83;;;32.10;93.80;;;;;;4172700;28;20687;-71
2022/08/12 07:18:57;;;;;;;3.95;1.88;;;32.00;93.90;;;;;;4189914;28;20142;-70
2022/08/12 07:21:04;;;;;;;8.95;2.13;;;32.00;94.00;;;;;;4190656;28;20942;-70
2022/08/12 07:23:11;;;;;;;5.95;1.92;;;31.90;94.20;;;;;;4191886;28;20045;-70
2022/08/12 07:27:41;;;;;;;8.13;2.10;;;31.80;94.40;;;;;;4191989;28;20071;-70
2022/08/12 07:29:48;;;;;;;4.40;1.48;;;31.80;94.40;;;;;;4176001;28;20039;-70
2022/08/12 07:32:07;;;;;;;3.50;1.73;;;31.70;94.10;;;;;;4206342;28;20045;-70
2022/08/12 07:34:11;;;;;;;5.53;1.40;;;31.60;94.10;;;;;;4190892;28;20047;-71
2022/08/12 07:36:21;;;;;;;5.88;1.42;;;31.50;94.30;;;;;;4193547;28;20749;-71
2022/08/12 07:38:32;;;;;;;5.00;1.50;;;31.50;94.50;;;;;;4210890;28;20159;-70
2022/08/12 07:40:37;;;;;;;4.95;1.90;;;31.40;94.70;;;;;;4209524;28;20043;-71
2022/08/12 07:42:43;;;;;;;5.97;1.70;;;31.40;95.00;;;;;;4209962;28;20047;-70
2022/08/12 07:44:50;;;;;;;5.50;2.00;;;31.30;94.80;;;;;;4210195;28;20071;-71
2022/08/12 07:46:55;;;;;;;4.25;1.92;;;31.30;94.90;;;;;;4210187;28;20098;-70
2022/08/12 07:49:06;;;;;;;4.95;2.00;;;31.20;94.60;;;;;;4210980;28;20052;-70
2022/08/12 07:51:12;;;;;;;6.38;2.25;;;31.10;94.80;;;;;;4211216;28;20036;-71
2022/08/12 07:53:28;;;;;;;6.60;2.20;;;31.00;94.90;;;;;;4210776;28;20501;-70
2022/08/12 07:55:35;;;;;;;12.02;9.65;;;30.90;94.90;;;;;;4210101;28;20043;-71
2022/08/12 07:57:51;;;;;;;7.88;5.13;;;30.90;94.80;;;;;;4211016;28;20048;-72
2022/08/12 07:59:56;;;;;;;11.15;4.45;;;30.80;94.90;;;;;;4208754;28;20063;-72
2022/08/12 08:02:00;;;;;;;9.13;5.65;;;30.90;95.10;;;;;;4208807;28;20086;-71
2022/08/12 08:06:23;;;;;;;6.95;2.90;;;30.80;95.00;;;;;;4209270;28;20032;-72
2022/08/12 08:08:29;;;;;;;14.98;3.72;;;30.90;95.50;;;;;;4209209;28;20097;-72
2022/08/12 08:10:36;;;;;;;7.43;2.85;;;30.90;95.20;;;;;;4240189;27;20047;-71
2022/08/12 08:14:57;;;;;;;5.13;2.00;;;30.90;94.90;;;;;;4205965;28;20374;-71
2022/08/12 08:17:05;;;;;;;4.65;1.77;;;30.90;94.90;;;;;;4206664;28;20043;-71
2022/08/12 08:19:21;;;;;;;3.58;1.58;;;30.90;94.50;;;;;;4207499;28;20047;-72
2022/08/12 08:21:31;;;;;;;3.97;1.92;;;30.80;94.50;;;;;;4206881;28;20048;-72
2022/08/12 08:25:59;;;;;;;4.65;2.05;;;30.90;94.50;;;;;;4206682;28;20040;-71
2022/08/12 08:28:11;;;;;;;1.85;1.25;;;30.90;94.60;;;;;;4205027;28;20051;-71
2022/08/12 08:30:16;;;;;;;5.05;1.70;;;31.00;94.40;;;;;;4206226;28;20047;-72
2022/08/12 08:32:23;;;;;;;6.85;1.50;;;30.90;94.30;;;;;;4207079;28;20076;-71
2022/08/12 08:34:30;;;;;;;5.47;1.33;;;31.00;94.40;;;;;;4206615;28;20067;-72
2022/08/12 08:36:54;;;;;;;7.93;2.10;;;30.90;94.40;;;;;;4205602;28;20043;-71
2022/08/12 08:39:03;;;;;;;29.48;19.08;;;30.80;94.60;;;;;;4207277;28;20059;-72
2022/08/12 08:43:48;;;;;;;43.45;31.25;;;30.70;94.90;;;;;;4171272;28;20679;-71
2022/08/12 08:45:56;;;;;;;16.65;11.82;;;30.80;94.80;;;;;;4171305;28;20037;-72
2022/08/12 08:48:03;;;;;;;7.43;4.63;;;30.80;94.80;;;;;;4155577;28;20049;-71
2022/08/12 08:50:09;;;;;;;6.65;3.08;;;30.90;94.50;;;;;;4171632;28;20045;-71
2022/08/12 08:52:13;;;;;;;7.03;2.50;;;30.80;94.50;;;;;;4171687;28;20045;-72
2022/08/12 08:54:39;;;;;;;5.75;2.42;;;30.70;94.70;;;;;;4156963;28;20862;-73
2022/08/12 08:56:48;;;;;;;5.43;2.22;;;30.70;94.80;;;;;;4171763;28;20045;-73
2022/08/12 08:58:53;;;;;;;3.13;2.00;;;30.70;94.80;;;;;;4174025;28;20099;-71
2022/08/12 09:00:58;;;;;;;5.55;1.83;;;30.50;94.70;;;;;;4172224;28;20072;-71
2022/08/12 09:03:06;;;;;;;5.32;1.70;;;30.50;95.00;;;;;;4171160;28;20049;-70
2022/08/12 09:05:30;;;;;;;4.15;1.70;;;30.60;95.00;;;;;;4172345;28;20403;-71
2022/08/12 09:07:59;;;;;;;4.38;1.60;;;30.50;95.00;;;;;;4171612;28;20123;-70
2022/08/12 09:10:21;;;;;;;2.70;1.50;;;30.60;94.90;;;;;;4135734;28;20136;-71
2022/08/12 09:14:57;;;;;;;6.15;1.80;;;30.50;95.10;;;;;;4172227;28;20076;-69
2022/08/12 09:17:02;;;;;;;3.33;1.40;;;30.70;95.20;;;;;;4171773;28;20448;-70
2022/08/12 09:19:08;;;;;;;3.67;1.33;;;30.60;95.20;;;;;;4171153;28;20075;-70
2022/08/12 09:21:30;;;;;;;3.13;1.40;;;30.80;95.20;;;;;;4187407;28;20066;-70
2022/08/12 09:23:59;;;;;;;3.45;1.48;;;30.80;95.20;;;;;;4174044;28;20076;-71
2022/08/12 09:26:09;;;;;;;3.92;1.30;;;30.80;95.20;;;;;;4187380;28;20403;-70
2022/08/12 09:28:19;;;;;;;4.43;1.20;;;30.80;95.20;;;;;;4188314;28;20041;-72
2022/08/12 09:30:33;;;;;;;2.70;1.13;;;30.80;95.00;;;;;;4188334;28;20075;-70
2022/08/12 09:32:51;;;;;;;3.80;1.50;;;30.90;95.00;;;;;;4186144;28;20057;-72
2022/08/12 09:35:20;;;;;;;4.07;1.40;;;30.90;95.00;;;;;;4187375;28;20136;-71
2022/08/12 09:37:31;;;;;;;3.92;1.30;;;30.90;95.00;;;;;;4187536;28;20037;-72
2022/08/12 09:39:55;;;;;;;4.97;1.67;;;30.80;94.90;;;;;;4187371;28;20041;-70
2022/08/12 09:47:28;;;;;;;3.95;1.58;;;30.70;95.00;;;;;;4187670;28;20437;-70
2022/08/12 09:49:35;;;;;;;4.00;1.70;;;30.60;95.00;;;;;;4188248;28;20048;-71
2022/08/12 09:51:46;;;;;;;4.88;1.80;;;30.70;94.90;;;;;;4203888;28;20048;-70
2022/08/12 09:53:53;;;;;;;4.78;1.52;;;30.80;95.10;;;;;;4188482;28;20546;-70
2022/08/12 09:56:18;;;;;;;8.80;1.67;;;30.80;94.80;;;;;;4207758;28;20048;-70
2022/08/12 09:58:49;;;;;;;6.50;1.83;;;30.80;95.10;;;;;;4186727;28;20692;-70
2022/08/12 10:01:03;;;;;;;3.28;1.60;;;30.90;95.00;;;;;;4188266;28;20056;-70
2022/08/12 10:03:20;;;;;;;6.38;1.90;;;30.90;95.00;;;;;;4156839;28;20164;-71
2022/08/12 10:05:39;;;;;;;6.75;1.95;;;30.90;95.10;;;;;;4173016;28;20494;-70
2022/08/12 10:08:08;;;;;;;3.65;1.70;;;30.90;95.10;;;;;;4174008;28;20043;-71
2022/08/12 10:10:13;;;;;;;9.18;1.80;;;30.90;95.30;;;;;;4188082;28;20049;-72
2022/08/12 10:15:04;;;;;;;7.15;2.03;;;30.90;95.50;;;;;;4188240;28;20033;-73
2022/08/12 10:17:09;;;;;;;5.20;2.20;;;30.90;95.60;;;;;;4187884;28;20085;-73
2022/08/12 10:19:18;;;;;;;5.07;1.95;;;30.90;96.00;;;;;;4188071;28;20075;-72
2022/08/12 10:21:38;;;;;;;3.25;1.63;;;30.90;95.90;;;;;;4187672;28;20047;-72
2022/08/12 10:23:44;;;;;;;6.43;1.70;;;30.80;95.20;;;;;;4174455;28;20049;-71
2022/08/12 10:31:05;;;;;;;11.20;1.95;;;30.90;95.40;;;;;;4191053;28;20045;-71
2022/08/12 10:33:19;;;;;;;5.03;1.90;;;30.90;95.40;;;;;;4191194;28;20098;-70
2022/08/12 10:35:34;;;;;;;4.53;2.20;;;30.90;95.80;;;;;;4175633;28;20180;-69
2022/08/12 10:37:41;;;;;;;10.32;1.90;;;30.80;95.90;;;;;;4209740;28;20390;-69
2022/08/12 10:40:10;;;;;;;7.38;2.60;;;30.80;95.80;;;;;;4212657;28;20071;-70
2022/08/12 10:44:48;;;;;;;6.68;3.10;;;30.60;96.40;;;;;;4211519;28;20040;-70
2022/08/12 10:46:55;;;;;;;6.88;2.97;;;30.60;96.40;;;;;;4211625;28;20055;-69
2022/08/12 10:49:04;;;;;;;6.65;3.20;;;30.60;96.40;;;;;;4210153;28;20040;-70
2022/08/12 10:51:29;;;;;;;8.55;4.00;;;30.60;96.50;;;;;;4212504;28;20482;-69
2022/08/12 10:53:56;;;;;;;10.77;5.00;;;30.60;96.50;;;;;;4176660;28;20131;-70
2022/08/12 10:56:04;;;;;;;7.82;5.60;;;30.50;96.50;;;;;;4174576;28;20063;-70
2022/08/12 10:58:08;;;;;;;9.52;5.32;;;30.50;96.80;;;;;;4176425;28;20049;-70
2022/08/12 11:00:33;;;;;;;7.63;4.13;;;30.40;97.30;;;;;;4175887;28;20049;-70
2022/08/12 11:03:00;;;;;;;6.25;3.28;;;30.40;97.30;;;;;;4176923;28;20045;-70
2022/08/12 11:05:24;;;;;;;5.57;3.00;;;30.30;97.50;;;;;;4175169;28;20077;-70
2022/08/12 11:07:51;;;;;;;5.60;2.85;;;30.40;97.40;;;;;;4142840;28;20042;-70
2022/08/12 11:10:17;;;;;;;11.55;3.13;;;30.40;97.60;;;;;;4143925;28;20444;-70
2022/08/12 11:12:31;;;;;;;7.57;3.15;;;30.40;97.60;;;;;;4143174;28;20038;-69
2022/08/12 11:14:58;;;;;;;5.45;2.20;;;30.30;97.90;;;;;;4111079;28;20078;-68
2022/08/12 11:17:22;;;;;;;6.57;2.50;;;30.20;98.20;;;;;;4101743;28;20043;-69
2022/08/12 11:19:46;;;;;;;10.90;3.10;;;30.20;98.50;;;;;;4110130;28;20057;-69
2022/08/12 11:21:54;;;;;;;8.52;3.08;;;30.20;98.40;;;;;;4110718;28;20047;-70
2022/08/12 11:24:05;;;;;;;12.38;3.30;;;30.20;98.50;;;;;;4108446;28;20081;-70
2022/08/12 11:26:30;;;;;;;10.55;3.15;;;30.10;98.70;;;;;;4110423;28;20130;-70
2022/08/12 11:28:37;;;;;;;6.10;3.17;;;30.10;98.80;;;;;;4109861;28;20039;-68
2022/08/12 11:30:42;;;;;;;7.72;3.10;;;30.10;98.70;;;;;;4106140;28;20047;-68
2022/08/12 11:32:47;;;;;;;9.93;2.90;;;30.20;98.60;;;;;;4120349;28;20437;-70
2022/08/12 11:34:52;;;;;;;8.55;3.03;;;30.10;98.50;;;;;;4121832;28;20097;-70
2022/08/12 11:37:06;;;;;;;11.60;2.95;;;30.10;98.80;;;;;;4122692;28;20807;-69
2022/08/12 11:39:34;;;;;;;10.18;2.95;;;30.10;99.10;;;;;;4121009;28;20081;-69
2022/08/12 11:42:02;;;;;;;10.40;3.35;;;30.00;99.20;;;;;;4094910;28;20142;-69
2022/08/12 11:44:08;;;;;;;9.85;3.45;;;30.00;99.40;;;;;;4095073;28;20138;-69
2022/08/12 11:46:36;;;;;;;8.20;2.70;;;30.00;99.50;;;;;;4168876;28;20041;-69
2022/08/12 11:48:45;;;;;;;7.20;2.80;;;30.00;99.80;;;;;;4184412;28;20045;-69
2022/08/12 11:50:55;;;;;;;5.90;2.50;;;30.00;99.70;;;;;;4186453;28;20064;-69
2022/08/12 11:52:59;;;;;;;7.50;3.05;;;30.00;99.60;;;;;;4171273;28;20041;-66
2022/08/12 11:55:07;;;;;;;13.10;3.28;;;29.90;99.70;;;;;;4119361;28;20897;-69
2022/08/12 11:57:17;;;;;;;9.45;3.53;;;29.90;99.90;;;;;;4185265;28;20127;-68
2022/08/12 11:59:41;;;;;;;9.13;4.43;;;29.90;99.90;;;;;;4181545;28;20045;-69
2022/08/12 12:02:13;;;;;;;13.48;6.32;;;29.90;99.90;;;;;;4144179;28;20187;-67
2022/08/12 12:04:23;;;;;;;10.52;5.88;;;29.90;99.90;;;;;;4139647;28;20992;-67
2022/08/12 12:06:32;;;;;;;12.90;6.45;;;29.80;99.90;;;;;;4123869;28;20114;-67
2022/08/12 12:08:40;;;;;;;11.32;6.07;;;29.80;99.90;;;;;;4140321;28;20149;-67
2022/08/12 12:10:53;;;;;;;13.77;5.90;;;29.80;99.90;;;;;;4139699;28;20049;-69
2022/08/12 12:12:58;;;;;;;13.13;6.30;;;29.80;99.90;;;;;;4139189;28;20049;-69
2022/08/12 12:15:08;;;;;;;12.88;6.78;;;29.80;99.90;;;;;;4139941;28;20054;-70
2022/08/12 12:17:15;;;;;;;12.13;6.82;;;29.80;99.90;;;;;;4124259;28;20153;-69
2022/08/12 12:19:19;;;;;;;11.50;7.15;;;29.80;99.90;;;;;;4148346;28;20045;-67
2022/08/12 12:21:44;;;;;;;9.63;6.32;;;29.70;99.90;;;;;;4172532;28;20037;-68
2022/08/12 12:23:52;;;;;;;11.43;6.40;;;29.70;99.90;;;;;;4171241;28;20079;-68
2022/08/12 12:26:04;;;;;;;12.90;6.38;;;29.70;99.90;;;;;;4173193;28;20123;-68
2022/08/12 12:28:31;;;;;;;11.13;5.25;;;29.70;99.90;;;;;;4130557;28;20057;-70
2022/08/12 12:30:40;;;;;;;8.23;5.80;;;29.60;99.90;;;;;;4124641;28;20081;-69
2022/08/12 12:32:57;;;;;;;12.00;7.85;;;29.60;99.90;;;;;;4124546;28;20050;-69
2022/08/12 12:35:05;;;;;;;14.45;10.23;;;29.60;99.90;;;;;;4120646;28;20154;-68
2022/08/12 12:37:29;;;;;;;13.73;11.25;;;29.60;99.90;;;;;;4122149;28;20043;-69
2022/08/12 12:39:56;;;;;;;12.50;9.80;;;29.60;99.90;;;;;;4145601;28;20053;-68
2022/08/12 12:42:03;;;;;;;14.98;10.52;;;29.60;99.90;;;;;;4169362;28;20128;-69
2022/08/12 12:44:27;;;;;;;11.63;9.23;;;29.60;99.90;;;;;;4171176;28;20079;-69
2022/08/12 12:46:52;;;;;;;13.88;8.45;;;29.60;99.90;;;;;;4171632;28;20103;-68
2022/08/12 12:48:58;;;;;;;9.52;7.07;;;29.50;99.90;;;;;;4171882;28;20049;-69
2022/08/12 12:51:15;;;;;;;13.75;8.15;;;29.50;99.90;;;;;;4167039;28;20049;-69
2022/08/12 12:53:42;;;;;;;12.02;7.45;;;29.50;99.90;;;;;;4168814;28;20075;-70
2022/08/12 12:56:11;;;;;;;16.10;8.82;;;29.50;99.90;;;;;;4168688;28;20049;-69
2022/08/12 12:58:16;;;;;;;14.32;9.27;;;29.50;99.90;;;;;;4168924;28;20640;-68
2022/08/12 13:00:20;;;;;;;14.65;9.50;;;29.40;99.90;;;;;;4169992;28;20044;-68
2022/08/12 13:02:28;;;;;;;15.73;8.50;;;29.40;99.90;;;;;;4169765;28;20053;-68
2022/08/12 13:04:34;;;;;;;11.30;7.20;;;29.50;99.90;;;;;;4154966;28;20472;-68
2022/08/12 13:06:40;;;;;;;10.77;6.85;;;29.50;99.90;;;;;;4194534;28;20101;-69
2022/08/12 13:08:49;;;;;;;11.35;5.85;;;29.40;99.90;;;;;;4205289;28;20581;-68
2022/08/12 13:11:05;;;;;;;11.18;7.15;;;29.40;99.90;;;;;;4207496;28;20047;-68
2022/08/12 13:13:10;;;;;;;14.25;7.97;;;29.40;99.90;;;;;;4203948;28;20043;-68
2022/08/12 13:15:36;;;;;;;12.98;7.68;;;29.40;99.90;;;;;;4204296;28;20040;-69
2022/08/12 13:17:54;;;;;;;12.73;8.43;;;29.40;99.90;;;;;;4203188;28;20101;-69
2022/08/12 13:20:06;;;;;;;15.60;8.88;;;29.30;99.90;;;;;;4204233;28;20070;-69
2022/08/12 13:22:35;;;;;;;13.70;9.15;;;29.30;99.90;;;;;;4180841;28;20114;-70
2022/08/12 13:24:41;;;;;;;16.38;10.18;;;29.30;99.90;;;;;;4186341;28;20156;-69
2022/08/12 13:26:46;;;;;;;14.30;9.35;;;29.30;99.90;;;;;;4186410;28;20072;-69
2022/08/12 13:28:53;;;;;;;15.55;9.70;;;29.30;99.90;;;;;;4187740;28;20040;-69